createdAt,value
2019-02-05T00:00:32.390Z,68.79
2019-02-05T00:01:34.069Z,68.40
2019-02-05T00:02:32.300Z,67.08
2019-02-05T00:03:32.252Z,69.64
2019-02-05T00:04:32.219Z,68.31
2019-02-05T00:05:32.166Z,68.69
2019-02-05T00:06:32.133Z,68.59
2019-02-05T00:07:32.086Z,67.83
2019-02-05T00:08:32.035Z,68.31
2019-02-05T00:09:31.995Z,68.98
2019-02-05T00:10:31.959Z,68.12
2019-02-05T00:11:31.913Z,67.74
2019-02-05T00:12:31.868Z,70.01
2019-02-05T00:13:31.826Z,69.26
2019-02-05T00:14:31.846Z,68.88
2019-02-05T00:15:31.731Z,70.30
2019-02-05T00:16:31.713Z,71.62
2019-02-05T00:17:31.649Z,69.92
2019-02-05T00:18:31.614Z,70.87
2019-02-05T00:19:31.564Z,70.49
2019-02-05T00:20:31.528Z,71.81
2019-02-05T00:21:31.478Z,70.01
2019-02-05T00:22:31.433Z,71.25
2019-02-05T00:23:31.383Z,72.10
2019-02-05T00:24:31.346Z,71.62
2019-02-05T00:25:31.299Z,71.81
2019-02-05T00:26:31.256Z,72.19
2019-02-05T00:27:31.210Z,73.24
2019-02-05T00:28:31.166Z,73.05
2019-02-05T00:29:31.132Z,72.67
2019-02-05T00:30:31.091Z,73.05
2019-02-05T00:31:31.042Z,73.80
2019-02-05T00:32:30.997Z,73.52
2019-02-05T00:33:30.951Z,74.28
2019-02-05T00:34:30.914Z,76.46
2019-02-05T00:35:30.864Z,74.37
2019-02-05T00:36:30.816Z,74.75
2019-02-05T00:37:30.779Z,75.23
2019-02-05T00:38:30.744Z,75.51
2019-02-05T00:39:30.697Z,76.08
2019-02-05T00:40:30.648Z,76.74
2019-02-05T00:41:30.618Z,78.07
2019-02-05T00:42:30.570Z,79.30
2019-02-05T00:43:30.534Z,78.54
2019-02-05T00:44:30.483Z,77.78
2019-02-05T00:45:30.436Z,79.68
2019-02-05T00:46:30.423Z,77.78
2019-02-05T00:47:32.261Z,80.15
2019-02-05T00:48:30.299Z,80.53
2019-02-05T00:49:30.257Z,82.33
2019-02-05T00:50:30.215Z,82.71
2019-02-05T00:51:30.173Z,81.20
2019-02-05T00:52:30.170Z,81.05
2019-02-05T00:53:30.090Z,81.29
2019-02-05T00:54:30.044Z,81.29
2019-02-05T00:55:30.021Z,81.24
2019-02-05T00:56:29.961Z,82.37
2019-02-05T00:57:29.908Z,82.18
2019-02-05T00:58:29.888Z,82.28
2019-02-05T00:59:29.820Z,81.95
2019-02-05T01:00:29.786Z,81.71
2019-02-05T01:01:29.737Z,82.66
2019-02-05T01:02:29.692Z,82.66
2019-02-05T01:03:29.651Z,82.56
2019-02-05T01:04:29.617Z,82.90
2019-02-05T01:05:29.582Z,84.08
2019-02-05T01:06:29.526Z,83.32
2019-02-05T01:07:29.477Z,83.85
2019-02-05T01:08:29.432Z,83.80
2019-02-05T01:09:29.393Z,84.74
2019-02-05T01:10:29.345Z,83.32
2019-02-05T01:11:29.303Z,83.66
2019-02-05T01:12:29.257Z,83.61
2019-02-05T01:13:29.219Z,83.80
2019-02-05T01:14:29.179Z,83.28
2019-02-05T01:15:29.158Z,82.18
2019-02-05T01:16:29.095Z,82.94
2019-02-05T01:17:29.043Z,84.55
2019-02-05T01:18:28.998Z,85.78
2019-02-05T01:19:28.972Z,85.31
2019-02-05T01:20:28.912Z,83.70
2019-02-05T01:21:28.865Z,84.08
2019-02-05T01:22:28.824Z,84.55
2019-02-05T01:23:28.787Z,84.94
2019-02-05T01:24:28.744Z,83.89
2019-02-05T01:25:28.694Z,84.74
2019-02-05T01:26:29.563Z,84.84
2019-02-05T01:27:28.607Z,83.09
2019-02-05T01:28:28.568Z,83.98
2019-02-05T01:29:28.520Z,84.84
2019-02-05T01:30:28.489Z,85.31
2019-02-05T01:31:28.430Z,85.41
2019-02-05T01:32:28.388Z,84.94
2019-02-05T01:33:28.347Z,85.13
2019-02-05T01:34:28.303Z,85.41
2019-02-05T01:35:28.263Z,85.60
2019-02-05T01:36:28.226Z,86.55
2019-02-05T01:37:28.174Z,86.35
2019-02-05T01:38:28.131Z,85.41
2019-02-05T01:39:28.087Z,85.78
2019-02-05T01:40:28.045Z,86.74
2019-02-05T01:41:28.012Z,84.94
2019-02-05T01:42:27.957Z,86.07
2019-02-05T01:43:27.919Z,87.02
2019-02-05T01:44:27.874Z,86.35
2019-02-05T01:45:27.831Z,85.88
2019-02-05T01:46:27.788Z,85.97
2019-02-05T01:47:27.745Z,86.07
2019-02-05T01:48:27.703Z,86.07
2019-02-05T01:49:27.654Z,86.07
2019-02-05T01:50:27.726Z,87.12
2019-02-05T01:51:27.674Z,86.64
2019-02-05T01:52:27.521Z,86.64
2019-02-05T01:53:27.483Z,86.93
2019-02-05T01:54:27.438Z,86.45
2019-02-05T01:55:27.400Z,85.69
2019-02-05T01:56:27.378Z,86.07
2019-02-05T01:57:27.307Z,85.69
2019-02-05T01:58:27.269Z,85.31
2019-02-05T01:59:27.230Z,85.03
2019-02-05T02:00:27.182Z,85.78
2019-02-05T02:01:27.150Z,85.69
2019-02-05T02:02:27.098Z,85.22
2019-02-05T02:03:27.045Z,84.17
2019-02-05T02:04:27.019Z,85.41
2019-02-05T02:05:26.961Z,84.36
2019-02-05T02:06:26.925Z,84.74
2019-02-05T02:07:26.879Z,83.98
2019-02-05T02:08:26.835Z,82.09
2019-02-05T02:09:26.789Z,82.66
2019-02-05T02:10:26.743Z,82.85
2019-02-05T02:11:26.706Z,83.23
2019-02-05T02:12:26.659Z,81.24
2019-02-05T02:13:26.617Z,83.04
2019-02-05T02:14:26.574Z,81.33
2019-02-05T02:15:26.541Z,80.38
2019-02-05T02:16:26.494Z,80.95
2019-02-05T02:17:26.489Z,78.49
2019-02-05T02:18:26.398Z,77.35
2019-02-05T02:19:26.359Z,77.16
2019-02-05T02:20:26.316Z,74.69
2019-02-05T02:21:26.270Z,75.17
2019-02-05T02:22:26.255Z,75.64
2019-02-05T02:23:26.177Z,75.55
2019-02-05T02:24:26.137Z,76.21
2019-02-05T02:25:26.094Z,76.12
2019-02-05T02:26:26.050Z,75.79
2019-02-05T02:27:26.011Z,75.55
2019-02-05T02:28:25.970Z,75.17
2019-02-05T02:29:25.922Z,74.60
2019-02-05T02:30:25.879Z,75.04
2019-02-05T02:31:25.833Z,75.07
2019-02-05T02:32:25.801Z,74.60
2019-02-05T02:33:25.748Z,75.98
2019-02-05T02:34:25.701Z,76.78
2019-02-05T02:35:25.659Z,75.36
2019-02-05T02:36:25.614Z,76.40
2019-02-05T02:37:25.571Z,76.50
2019-02-05T02:38:25.534Z,74.13
2019-02-05T02:39:25.490Z,74.88
2019-02-05T02:40:25.456Z,75.26
2019-02-05T02:41:25.402Z,76.03
2019-02-05T02:42:25.361Z,76.31
2019-02-05T02:43:25.319Z,74.79
2019-02-05T02:44:34.937Z,74.51
2019-02-05T02:46:29.689Z,73.27
2019-02-05T02:47:29.620Z,69.86
2019-02-05T02:48:29.581Z,68.82
2019-02-05T02:49:29.541Z,65.78
2019-02-05T02:50:29.490Z,65.41
2019-02-05T02:51:29.489Z,64.46
2019-02-05T02:52:29.400Z,63.04
2019-02-05T02:53:29.360Z,61.90
2019-02-05T02:54:29.315Z,60.00
2019-02-05T02:55:29.271Z,60.10
2019-02-05T02:56:29.231Z,60.28
2019-02-05T02:57:29.186Z,61.61
2019-02-05T02:58:29.142Z,62.56
2019-02-05T02:59:29.098Z,61.40
2019-02-05T03:00:29.066Z,62.91
2019-02-05T03:01:29.014Z,62.28
2019-02-05T03:02:28.970Z,62.94
2019-02-05T03:03:28.938Z,65.59
2019-02-05T03:04:28.879Z,63.04
2019-02-05T03:05:28.849Z,63.98
2019-02-05T03:06:28.798Z,65.00
2019-02-05T03:07:28.753Z,64.52
2019-02-05T03:08:28.744Z,66.64
2019-02-05T03:09:28.669Z,66.03
2019-02-05T03:10:28.626Z,65.37
2019-02-05T03:11:28.583Z,65.47
2019-02-05T03:12:28.540Z,63.76
2019-02-05T03:13:28.542Z,63.67
2019-02-05T03:14:28.448Z,62.91
2019-02-05T03:15:28.410Z,61.87
2019-02-05T03:16:28.370Z,61.77
2019-02-05T03:17:28.325Z,62.15
2019-02-05T03:18:28.280Z,61.30
2019-02-05T03:19:28.233Z,60.64
2019-02-05T03:20:28.188Z,60.38
2019-02-05T03:21:28.144Z,57.92
2019-02-05T03:22:28.100Z,58.58
2019-02-05T03:23:28.060Z,59.03
2019-02-05T03:24:28.019Z,56.78
2019-02-05T03:25:27.986Z,57.23
2019-02-05T03:26:27.935Z,58.07
2019-02-05T03:27:27.885Z,58.55
2019-02-05T03:28:27.844Z,57.25
2019-02-05T03:29:27.802Z,57.70
2019-02-05T03:30:27.762Z,59.59
2019-02-05T03:31:27.716Z,59.97
2019-02-05T03:32:27.672Z,60.00
2019-02-05T03:33:27.656Z,60.73
2019-02-05T03:34:27.722Z,60.83
2019-02-05T03:35:27.538Z,60.00
2019-02-05T03:36:27.499Z,60.95
2019-02-05T03:37:27.457Z,63.23
2019-02-05T03:38:27.408Z,61.21
2019-02-05T03:39:27.365Z,60.76
2019-02-05T03:40:27.319Z,60.73
2019-02-05T03:41:27.280Z,60.06
2019-02-05T03:42:27.236Z,61.24
2019-02-05T03:43:27.196Z,60.19
2019-02-05T03:44:27.155Z,58.96
2019-02-05T03:45:27.108Z,57.82
2019-02-05T03:46:27.061Z,57.51
2019-02-05T03:47:27.021Z,57.92
2019-02-05T03:48:26.979Z,57.79
2019-02-05T03:49:26.936Z,56.85
2019-02-05T03:50:26.894Z,58.84
2019-02-05T04:06:28.679Z,36.85
2019-02-05T04:07:28.428Z,36.38
2019-02-05T04:08:28.594Z,36.38
2019-02-05T04:09:28.355Z,34.96
2019-02-05T04:10:28.269Z,34.30
2019-02-05T04:11:28.227Z,34.30
2019-02-05T04:12:28.191Z,34.30
2019-02-05T04:13:28.132Z,35.34
2019-02-05T04:14:28.091Z,33.25
2019-02-05T04:15:28.047Z,32.68
2019-02-05T04:16:28.008Z,32.02
2019-02-05T04:17:27.959Z,32.59
2019-02-05T04:18:27.911Z,34.39
2019-02-05T04:19:27.872Z,32.40
2019-02-05T04:20:27.820Z,32.40
2019-02-05T04:21:27.778Z,33.35
2019-02-05T04:22:27.737Z,32.40
2019-02-05T04:23:27.695Z,32.40
2019-02-05T04:24:27.650Z,33.54
2019-02-05T04:25:27.607Z,33.54
2019-02-05T04:26:27.563Z,33.63
2019-02-05T04:27:27.622Z,33.25
2019-02-05T04:28:27.474Z,34.30
2019-02-05T04:29:27.428Z,34.96
2019-02-05T04:30:27.385Z,33.82
2019-02-05T04:31:27.337Z,33.92
2019-02-05T04:32:27.293Z,34.20
2019-02-05T04:33:27.311Z,34.77
2019-02-05T04:34:27.207Z,35.05
2019-02-05T04:35:27.173Z,36.19
2019-02-05T04:36:27.126Z,36.57
2019-02-05T04:37:27.082Z,38.18
2019-02-05T04:38:27.036Z,37.33
2019-02-05T04:39:26.997Z,37.14
2019-02-05T04:40:26.943Z,36.10
2019-02-05T04:41:26.902Z,35.15
2019-02-05T04:42:26.857Z,35.24
2019-02-05T04:43:26.821Z,35.81
2019-02-05T04:44:26.776Z,35.15
2019-02-05T04:45:34.130Z,35.91
2019-02-05T04:46:26.684Z,36.95
2019-02-05T04:47:26.651Z,36.85
2019-02-05T04:48:26.599Z,36.85
2019-02-05T04:49:26.672Z,36.95
2019-02-05T04:50:26.518Z,37.90
2019-02-05T04:51:26.464Z,37.71
2019-02-05T04:52:26.429Z,37.80
2019-02-05T04:53:26.379Z,37.42
2019-02-05T04:54:26.334Z,37.14
2019-02-05T04:55:26.297Z,37.14
2019-02-05T04:56:26.250Z,37.33
2019-02-05T04:57:26.211Z,37.04
2019-02-05T04:58:26.165Z,36.00
2019-02-05T04:59:26.119Z,34.96
2019-02-05T05:00:26.102Z,34.86
2019-02-05T05:01:26.037Z,35.34
2019-02-05T05:02:25.991Z,35.34
2019-02-05T05:03:25.943Z,35.15
2019-02-05T05:04:25.908Z,36.00
2019-02-05T05:05:25.964Z,35.91
2019-02-05T05:06:25.815Z,36.29
2019-02-05T05:07:25.780Z,35.53
2019-02-05T05:08:25.729Z,34.86
2019-02-05T05:09:25.718Z,34.48
2019-02-05T05:10:25.643Z,34.67
2019-02-05T05:11:25.596Z,34.58
2019-02-05T05:12:25.558Z,34.48
2019-02-05T05:13:25.515Z,34.48
2019-02-05T05:14:25.473Z,35.43
2019-02-05T05:15:25.426Z,35.62
2019-02-05T05:16:25.381Z,35.72
2019-02-05T05:17:25.341Z,35.15
2019-02-05T05:18:25.294Z,35.24
2019-02-05T05:19:25.253Z,34.11
2019-02-05T05:20:25.207Z,35.15
2019-02-05T05:21:25.165Z,34.39
2019-02-05T05:22:25.123Z,34.20
2019-02-05T05:23:25.073Z,34.31
2019-02-05T05:24:25.035Z,34.98
2019-02-05T05:25:24.990Z,34.77
2019-02-05T05:26:24.949Z,35.34
2019-02-05T05:27:24.908Z,35.45
2019-02-05T05:28:24.865Z,34.86
2019-02-05T05:29:24.819Z,34.22
2019-02-05T05:30:24.778Z,34.03
2019-02-05T05:31:24.733Z,34.88
2019-02-05T05:32:24.684Z,33.94
2019-02-05T05:33:24.648Z,34.11
2019-02-05T05:34:24.610Z,33.08
2019-02-05T05:35:24.580Z,33.63
2019-02-05T05:36:24.514Z,33.06
2019-02-05T05:37:24.467Z,33.56
2019-02-05T05:38:24.425Z,33.82
2019-02-05T05:39:24.387Z,34.03
2019-02-05T05:40:24.346Z,33.73
2019-02-05T05:41:24.318Z,34.22
2019-02-05T05:42:24.258Z,34.31
2019-02-05T05:43:24.209Z,34.59
2019-02-05T05:44:24.169Z,34.50
2019-02-05T05:45:24.122Z,34.59
2019-02-05T05:46:24.080Z,34.41
2019-02-05T05:47:24.039Z,34.78
2019-02-05T05:48:23.992Z,34.88
2019-02-05T05:49:23.951Z,34.12
2019-02-05T05:50:23.912Z,34.59
2019-02-05T05:51:23.866Z,34.22
2019-02-05T05:52:23.825Z,34.41
2019-02-05T05:53:23.776Z,34.88
2019-02-05T05:54:23.737Z,34.88
2019-02-05T05:55:33.433Z,34.98
2019-02-05T05:57:28.109Z,34.31
2019-02-05T05:58:28.055Z,33.65
2019-02-05T05:59:27.985Z,33.08
2019-02-05T06:00:28.152Z,33.08
2019-02-05T06:01:27.898Z,33.27
2019-02-05T06:02:27.861Z,32.04
2019-02-05T06:03:27.816Z,31.75
2019-02-05T06:04:27.774Z,30.71
2019-02-05T06:05:27.727Z,30.62
2019-02-05T06:06:27.686Z,29.95
2019-02-05T06:07:27.637Z,29.86
2019-02-05T06:08:27.595Z,32.04
2019-02-05T06:09:27.557Z,30.05
2019-02-05T06:10:27.514Z,31.37
2019-02-05T06:11:27.465Z,30.33
2019-02-05T06:12:27.423Z,31.95
2019-02-05T06:13:27.384Z,30.71
2019-02-05T06:14:27.338Z,30.62
2019-02-05T06:15:27.306Z,31.28
2019-02-05T06:16:27.255Z,30.90
2019-02-05T06:17:27.210Z,31.37
2019-02-05T06:18:27.171Z,31.47
2019-02-05T06:19:27.120Z,30.99
2019-02-05T06:20:27.078Z,30.33
2019-02-05T06:21:27.042Z,30.99
2019-02-05T06:22:26.987Z,31.09
2019-02-05T06:23:26.952Z,30.99
2019-02-05T06:24:26.910Z,31.18
2019-02-05T06:25:26.875Z,31.28
2019-02-05T06:26:26.815Z,30.71
2019-02-05T06:27:26.785Z,30.33
2019-02-05T06:28:34.250Z,30.99
2019-02-05T06:29:26.689Z,30.71
2019-02-05T06:30:26.647Z,30.71
2019-02-05T06:31:26.601Z,30.71
2019-02-05T06:32:26.559Z,30.90
2019-02-05T06:33:26.540Z,29.95
2019-02-05T06:34:26.476Z,29.67
2019-02-05T06:35:26.437Z,29.76
2019-02-05T06:36:26.386Z,29.57
2019-02-05T06:37:26.345Z,28.91
2019-02-05T06:38:26.303Z,28.34
2019-02-05T06:39:26.253Z,28.34
2019-02-05T06:40:26.228Z,28.34
2019-02-05T06:41:26.172Z,28.34
2019-02-05T06:42:26.130Z,28.34
2019-02-05T06:43:26.080Z,28.25
2019-02-05T06:44:26.041Z,28.15
2019-02-05T06:45:25.999Z,27.87
2019-02-05T06:46:25.958Z,27.96
2019-02-05T06:47:25.914Z,27.96
2019-02-05T06:48:25.867Z,27.49
2019-02-05T06:49:25.826Z,27.20
2019-02-05T06:50:25.784Z,27.30
2019-02-05T06:51:25.738Z,27.20
2019-02-05T06:52:25.694Z,27.01
2019-02-05T06:53:25.653Z,27.01
2019-02-05T06:54:25.617Z,26.82
2019-02-05T06:55:25.572Z,26.73
2019-02-05T06:56:25.526Z,26.45
2019-02-05T06:57:25.479Z,26.82
2019-02-05T06:58:25.433Z,26.26
2019-02-05T06:59:25.415Z,26.35
2019-02-05T07:00:25.352Z,25.97
2019-02-05T07:01:25.312Z,25.40
2019-02-05T07:02:25.267Z,24.93
2019-02-05T07:03:25.220Z,25.59
2019-02-05T07:04:25.665Z,25.31
2019-02-05T07:05:25.959Z,24.36
2019-02-05T07:06:25.361Z,24.55
2019-02-05T07:07:26.853Z,24.65
2019-02-05T07:08:37.871Z,24.93
2019-02-05T07:09:25.475Z,25.78
2019-02-05T07:10:24.949Z,26.07
2019-02-05T07:11:24.898Z,25.88
2019-02-05T07:12:24.904Z,25.78
2019-02-05T07:13:24.826Z,24.55
2019-02-05T07:14:24.779Z,22.37
2019-02-05T07:15:24.731Z,22.75
2019-02-05T07:16:24.685Z,22.85
2019-02-05T07:17:24.658Z,22.75
2019-02-05T07:18:25.335Z,23.22
2019-02-05T07:19:24.557Z,23.13
2019-02-05T07:20:24.575Z,22.94
2019-02-05T07:21:24.471Z,23.03
2019-02-05T07:22:24.425Z,23.69
2019-02-05T07:23:24.378Z,23.60
2019-02-05T07:24:24.335Z,23.69
2019-02-05T07:25:24.303Z,23.50
2019-02-05T07:26:24.251Z,23.22
2019-02-05T07:27:24.439Z,23.32
2019-02-05T07:28:24.168Z,23.69
2019-02-05T07:29:24.770Z,23.50
2019-02-05T07:30:24.089Z,23.22
2019-02-05T07:31:24.038Z,22.94
2019-02-05T07:32:24.013Z,21.89
2019-02-05T07:33:23.952Z,21.99
2019-02-05T07:34:24.680Z,21.89
2019-02-05T07:35:23.865Z,21.70
2019-02-05T07:36:23.849Z,21.99
2019-02-05T07:37:23.783Z,21.80
2019-02-05T07:38:23.731Z,21.99
2019-02-05T07:39:23.725Z,22.18
2019-02-05T07:40:23.652Z,22.37
2019-02-05T07:41:23.634Z,22.37
2019-02-05T07:42:24.129Z,22.27
2019-02-05T07:43:23.516Z,22.08
2019-02-05T07:44:23.484Z,22.27
2019-02-05T07:45:23.438Z,22.18
2019-02-05T07:46:23.392Z,22.27
2019-02-05T07:47:23.583Z,22.65
2019-02-05T07:48:23.306Z,22.18
2019-02-05T07:49:23.361Z,22.85
2019-02-05T07:50:23.217Z,23.22
2019-02-05T07:51:23.183Z,23.32
2019-02-05T07:52:23.135Z,23.41
2019-02-05T07:53:23.099Z,23.69
2019-02-05T07:54:23.118Z,23.41
2019-02-05T07:55:23.000Z,23.60
2019-02-05T07:56:22.965Z,22.75
2019-02-05T07:57:22.920Z,22.65
2019-02-05T07:58:22.873Z,22.75
2019-02-05T07:59:22.856Z,23.13
2019-02-05T08:00:22.835Z,23.13
2019-02-05T08:01:22.778Z,23.50
2019-02-05T08:02:22.784Z,23.50
2019-02-05T08:03:22.783Z,23.52
2019-02-05T08:04:22.622Z,23.79
2019-02-05T08:05:22.595Z,23.99
2019-02-05T08:06:22.538Z,23.99
2019-02-05T08:07:22.492Z,23.98
2019-02-05T08:08:22.451Z,24.47
2019-02-05T08:09:22.415Z,24.47
2019-02-05T08:10:22.384Z,24.56
2019-02-05T08:11:22.329Z,24.65
2019-02-05T08:12:22.280Z,24.65
2019-02-05T08:13:22.241Z,24.66
2019-02-05T08:14:22.196Z,24.66
2019-02-05T08:15:22.150Z,24.47
2019-02-05T08:16:22.132Z,24.47
2019-02-05T08:17:22.073Z,24.28
2019-02-05T08:18:22.025Z,23.90
2019-02-05T08:19:21.979Z,23.33
2019-02-05T08:20:21.949Z,23.14
2019-02-05T08:21:21.899Z,22.85
2019-02-05T08:22:22.117Z,22.38
2019-02-05T08:23:21.833Z,22.47
2019-02-05T08:24:21.768Z,22.85
2019-02-05T08:25:21.916Z,23.04
2019-02-05T08:26:21.685Z,22.57
2019-02-05T08:27:21.634Z,21.91
2019-02-05T08:28:21.629Z,22.28
2019-02-05T08:29:21.974Z,22.00
2019-02-05T08:30:21.511Z,22.28
2019-02-05T08:31:21.492Z,22.76
2019-02-05T08:32:21.484Z,22.95
2019-02-05T08:33:21.403Z,22.66
2019-02-05T08:34:21.457Z,22.57
2019-02-05T08:35:21.308Z,22.76
2019-02-05T08:42:40.543Z,24.75
2019-02-05T08:43:37.670Z,24.66
2019-02-05T08:44:36.965Z,24.75
2019-02-05T08:45:36.474Z,24.75
2019-02-05T08:46:37.353Z,24.66
2019-02-05T08:47:36.410Z,24.47
2019-02-05T08:48:36.286Z,24.47
2019-02-05T08:49:42.688Z,24.37
2019-02-05T08:50:48.377Z,24.18
2019-02-05T08:51:43.653Z,23.24
2019-02-05T08:52:35.846Z,22.85
2019-02-05T08:53:35.724Z,22.76
2019-02-05T08:54:35.802Z,23.04
2019-02-05T08:55:36.387Z,21.72
2019-02-05T08:56:42.786Z,22.00
2019-02-05T08:57:41.076Z,22.09
2019-02-05T08:58:35.570Z,22.00
2019-02-05T08:59:50.373Z,22.57
2019-02-05T09:00:38.138Z,22.85
2019-02-05T09:01:43.790Z,23.24
2019-02-05T09:02:45.956Z,24.75
2019-02-05T09:03:38.262Z,25.13
2019-02-05T09:04:37.266Z,24.66
2019-02-05T09:05:35.237Z,24.66
2019-02-05T09:06:35.518Z,25.89
2019-02-05T09:07:35.131Z,25.51
2019-02-05T09:08:35.078Z,25.23
2019-02-05T09:09:43.729Z,25.24
2019-02-05T09:14:36.833Z,25.05
2019-02-05T09:15:36.863Z,26.36
2019-02-05T09:16:36.738Z,26.57
2019-02-05T09:17:37.068Z,26.09
2019-02-05T09:18:36.585Z,27.33
2019-02-05T09:19:36.635Z,26.85
2019-02-05T09:20:36.575Z,26.95
2019-02-05T09:21:36.454Z,27.51
2019-02-05T09:22:37.349Z,27.42
2019-02-05T09:23:36.376Z,27.80
2019-02-05T09:24:36.847Z,27.33
2019-02-05T09:25:36.365Z,27.14
2019-02-05T09:26:36.254Z,26.95
2019-02-05T09:27:36.220Z,26.76
2019-02-05T09:28:36.202Z,26.28
2019-02-05T09:29:36.405Z,26.09
2019-02-05T09:30:43.732Z,25.43
2019-02-05T09:31:44.437Z,24.57
2019-02-05T09:32:36.088Z,24.48
2019-02-05T09:33:37.272Z,24.57
2019-02-05T09:34:35.910Z,24.67
2019-02-05T09:35:35.878Z,24.01
2019-02-05T09:36:35.824Z,23.34
2019-02-05T09:37:38.261Z,23.72
2019-02-05T09:38:41.164Z,23.63
2019-02-05T09:39:41.349Z,24.48
2019-02-05T09:40:35.856Z,27.51
2019-02-05T09:41:35.618Z,27.70
2019-02-05T09:42:35.843Z,27.33
2019-02-05T09:43:35.588Z,27.51
2019-02-05T09:44:35.678Z,26.85
2019-02-05T09:45:35.451Z,25.52
2019-02-05T09:46:35.542Z,25.05
2019-02-05T09:47:35.370Z,25.14
2019-02-05T09:48:35.335Z,25.05
2019-02-05T09:49:35.569Z,23.82
2019-02-05T09:50:44.289Z,24.57
2019-02-05T09:51:39.541Z,25.90
2019-02-05T09:52:35.160Z,25.73
2019-02-05T09:53:35.127Z,25.99
2019-02-05T09:54:35.166Z,24.49
2019-02-05T09:55:36.183Z,25.44
2019-02-05T09:56:35.016Z,26.67
2019-02-05T09:57:34.964Z,26.96
2019-02-05T09:58:34.899Z,29.43
2019-02-05T09:59:44.844Z,31.99
2019-02-05T10:00:44.007Z,31.61
2019-02-05T10:01:37.674Z,30.28
2019-02-05T10:02:34.886Z,34.94
2019-02-05T10:03:34.697Z,34.55
2019-02-05T10:04:34.653Z,34.27
2019-02-05T10:19:45.129Z,16.52
2019-02-05T10:20:44.843Z,21.74
2019-02-05T10:22:49.507Z,25.54
2019-02-05T10:23:55.248Z,25.63
2019-02-05T10:24:49.955Z,25.25
2019-02-05T10:25:49.501Z,26.01
2019-02-05T10:26:49.834Z,25.54
2019-02-05T10:27:49.259Z,24.49
2019-02-05T10:28:49.175Z,25.63
2019-02-05T10:29:57.705Z,26.77
2019-02-05T10:30:49.103Z,26.86
2019-02-05T10:31:48.964Z,27.62
2019-02-05T10:32:48.807Z,27.34
2019-02-05T10:33:55.237Z,27.53
2019-02-05T10:34:49.114Z,26.96
2019-02-05T10:35:48.904Z,26.96
2019-02-05T10:36:55.478Z,27.15
2019-02-05T10:37:57.718Z,27.15
2019-02-05T10:38:49.165Z,26.20
2019-02-05T10:39:48.976Z,26.67
2019-02-05T10:40:48.492Z,28.68
2019-02-05T10:41:50.791Z,28.29
2019-02-05T10:42:48.442Z,27.83
2019-02-05T10:43:48.328Z,28.49
2019-02-05T10:44:50.289Z,28.21
2019-02-05T10:45:48.255Z,28.78
2019-02-05T10:46:48.350Z,27.16
2019-02-05T10:47:48.178Z,27.07
2019-02-05T10:48:48.412Z,26.69
2019-02-05T10:49:48.227Z,26.50
2019-02-05T10:50:48.047Z,26.40
2019-02-05T10:51:48.082Z,26.21
2019-02-05T10:52:48.288Z,28.02
2019-02-05T10:53:47.914Z,29.35
2019-02-05T10:54:47.870Z,31.72
2019-02-05T10:55:47.917Z,33.34
2019-02-05T10:56:47.789Z,31.72
2019-02-05T10:57:47.791Z,32.77
2019-02-05T10:58:47.840Z,34.00
2019-02-05T10:59:47.729Z,32.39
2019-02-05T11:00:47.632Z,30.49
2019-02-05T11:01:47.609Z,32.48
2019-02-05T11:02:47.545Z,31.72
2019-02-05T11:03:47.514Z,30.96
2019-02-05T11:04:47.561Z,32.01
2019-02-05T11:05:47.418Z,30.58
2019-02-05T11:06:47.414Z,30.77
2019-02-05T11:07:47.428Z,32.10
2019-02-05T11:08:47.292Z,32.39
2019-02-05T11:09:47.252Z,33.15
2019-02-05T11:10:47.226Z,32.39
2019-02-05T11:11:47.166Z,30.58
2019-02-05T11:12:47.135Z,29.82
2019-02-05T11:13:47.084Z,30.77
2019-02-05T11:14:47.040Z,30.96
2019-02-05T11:15:47.001Z,31.05
2019-02-05T11:16:46.958Z,31.82
2019-02-05T11:17:46.913Z,33.15
2019-02-05T11:18:47.323Z,33.05
2019-02-05T11:19:46.870Z,33.24
2019-02-05T11:20:46.789Z,33.05
2019-02-05T11:21:46.757Z,33.62
2019-02-05T11:22:46.764Z,34.38
2019-02-05T11:23:46.676Z,34.86
2019-02-05T11:24:46.690Z,33.91
2019-02-05T11:25:46.689Z,30.68
2019-02-05T11:26:46.557Z,26.50
2019-02-05T11:27:46.504Z,26.50
2019-02-05T11:28:46.472Z,28.97
2019-02-05T11:29:46.502Z,32.10
2019-02-05T11:30:46.380Z,32.39
2019-02-05T11:31:46.342Z,32.10
2019-02-05T11:32:46.391Z,32.10
2019-02-05T11:33:46.330Z,33.15
2019-02-05T11:34:46.300Z,32.29
2019-02-05T11:35:46.169Z,33.53
2019-02-05T11:36:46.768Z,32.86
2019-02-05T11:37:46.129Z,30.20
2019-02-05T11:38:46.053Z,28.30
2019-02-05T11:39:46.035Z,28.30
2019-02-05T11:40:45.971Z,32.20
2019-02-05T11:41:45.980Z,32.10
2019-02-05T11:42:45.920Z,30.60
2019-02-05T11:43:45.893Z,29.35
2019-02-05T11:44:45.817Z,28.60
2019-02-05T11:45:45.760Z,29.84
2019-02-05T11:46:45.846Z,33.17
2019-02-05T11:47:45.690Z,32.59
2019-02-05T11:48:45.694Z,32.12
2019-02-05T11:49:45.602Z,33.17
2019-02-05T11:50:45.583Z,34.88
2019-02-05T11:51:45.612Z,34.69
2019-02-05T11:52:45.522Z,34.59
2019-02-05T11:53:45.431Z,35.06
2019-02-05T11:54:45.408Z,35.06
2019-02-05T11:55:45.463Z,33.83
2019-02-05T11:56:45.319Z,32.03
2019-02-05T11:57:45.291Z,38.48
2019-02-05T11:58:45.234Z,35.92
2019-02-05T11:59:45.252Z,40.01
2019-02-05T12:00:45.154Z,39.81
2019-02-05T12:01:45.127Z,38.39
2019-02-05T12:02:45.131Z,33.45
2019-02-05T12:03:45.027Z,32.97
2019-02-05T12:04:45.028Z,33.17
2019-02-05T12:05:44.965Z,36.40
2019-02-05T12:06:45.180Z,38.01
2019-02-05T12:07:44.862Z,38.68
2019-02-05T12:08:44.824Z,37.54
2019-02-05T12:09:44.789Z,37.82
2019-02-05T12:10:44.736Z,37.44
2019-02-05T12:11:44.695Z,33.45
2019-02-05T12:12:45.340Z,28.51
2019-02-05T12:13:44.648Z,30.41
2019-02-05T12:14:44.661Z,31.64
2019-02-05T12:15:44.602Z,32.03
2019-02-05T12:16:44.509Z,30.51
2019-02-05T12:17:44.643Z,29.27
2019-02-05T12:18:44.472Z,28.79
2019-02-05T12:19:44.377Z,29.17
2019-02-05T12:20:44.340Z,30.12
2019-02-05T12:21:44.414Z,30.60
2019-02-05T12:22:44.357Z,30.60
2019-02-05T12:23:44.296Z,30.12
2019-02-05T12:24:44.196Z,30.03
2019-02-05T12:25:44.181Z,30.69
2019-02-05T12:26:44.299Z,30.88
2019-02-05T12:27:44.061Z,30.60
2019-02-05T12:28:44.055Z,30.03
2019-02-05T12:29:44.187Z,29.93
2019-02-05T12:30:45.390Z,29.55
2019-02-05T12:31:43.888Z,27.84
2019-02-05T12:32:43.840Z,26.79
2019-02-05T12:33:44.059Z,24.33
2019-02-05T12:34:43.788Z,23.57
2019-02-05T12:35:52.377Z,24.33
2019-02-05T12:36:43.914Z,24.61
2019-02-05T12:37:43.711Z,24.04
2019-02-05T12:38:44.349Z,23.47
2019-02-05T12:39:45.286Z,23.38
2019-02-05T12:40:43.554Z,23.57
2019-02-05T12:41:47.319Z,24.33
2019-02-05T12:42:43.433Z,24.42
2019-02-05T12:45:22.630Z,22.90
2019-02-05T12:46:22.545Z,23.75
2019-02-05T12:47:22.499Z,24.04
2019-02-05T12:48:22.543Z,23.57
2019-02-05T12:49:22.551Z,22.71
2019-02-05T12:50:22.397Z,22.33
2019-02-05T12:51:22.366Z,21.09
2019-02-05T12:52:23.273Z,22.05
2019-02-05T12:53:22.399Z,21.95
2019-02-05T12:54:22.377Z,23.47
2019-02-05T12:55:23.181Z,23.19
2019-02-05T12:56:22.159Z,23.38
2019-02-05T12:57:22.087Z,23.47
2019-02-05T12:58:22.044Z,25.46
2019-02-05T12:59:22.009Z,26.70
2019-02-05T13:00:21.966Z,26.70
2019-02-05T13:01:21.931Z,27.27
2019-02-05T13:02:21.883Z,26.61
2019-02-05T13:03:21.845Z,26.98
2019-02-05T13:04:21.798Z,26.23
2019-02-05T13:05:21.763Z,26.04
2019-02-05T13:06:21.720Z,28.13
2019-02-05T13:07:21.681Z,27.27
2019-02-05T13:08:21.643Z,26.70
2019-02-05T13:09:21.593Z,27.65
2019-02-05T13:10:21.595Z,28.31
2019-02-05T13:11:21.548Z,27.27
2019-02-05T13:12:21.471Z,27.27
2019-02-05T13:13:21.437Z,26.89
2019-02-05T13:14:21.413Z,26.89
2019-02-05T13:15:21.352Z,27.27
2019-02-05T13:16:21.308Z,28.03
2019-02-05T13:17:21.274Z,26.32
2019-02-05T13:18:21.239Z,26.12
2019-02-05T13:19:21.191Z,23.55
2019-02-05T13:20:21.151Z,21.75
2019-02-05T13:21:21.103Z,22.03
2019-02-05T13:22:21.072Z,22.14
2019-02-05T13:23:21.024Z,20.70
2019-02-05T13:24:21.010Z,23.09
2019-02-05T13:25:21.006Z,21.86
2019-02-05T13:26:20.901Z,21.76
2019-02-05T13:27:20.861Z,22.05
2019-02-05T13:28:20.822Z,20.42
2019-02-05T13:29:20.788Z,19.48
2019-02-05T13:30:20.735Z,18.43
2019-02-05T13:31:20.692Z,15.77
2019-02-05T13:32:20.781Z,14.63
2019-02-05T13:33:20.647Z,13.40
2019-02-05T13:34:20.570Z,15.11
2019-02-05T13:35:20.537Z,14.25
2019-02-05T13:36:22.629Z,13.59